createdAt,value
2023-03-22T00:01:46.173Z,60.21
2023-03-22T00:04:12.704Z,59.54
2023-03-22T00:06:39.288Z,59.88
2023-03-22T00:09:05.688Z,60.66
2023-03-22T00:11:32.014Z,61.19
2023-03-22T00:13:58.868Z,61.72
2023-03-22T00:16:25.499Z,62.88
2023-03-22T00:18:52.102Z,62.83
2023-03-22T00:21:18.613Z,63.74
2023-03-22T00:23:45.492Z,63.89
2023-03-22T00:26:14.743Z,63.79
2023-03-22T00:28:41.518Z,64.08
2023-03-22T00:31:08.353Z,64.20
2023-03-22T00:33:35.351Z,64.52
2023-03-22T00:36:05.545Z,64.41
2023-03-22T00:38:42.352Z,64.71
2023-03-22T00:41:14.578Z,64.70
2023-03-22T00:43:41.166Z,63.82
2023-03-22T00:46:08.588Z,63.47
2023-03-22T00:48:35.165Z,63.23
2023-03-22T00:51:01.737Z,63.72
2023-03-22T00:53:30.405Z,63.49
2023-03-22T00:55:57.328Z,63.95
2023-03-22T00:58:24.805Z,62.85
2023-03-22T01:00:51.315Z,62.30
2023-03-22T01:03:17.772Z,62.16
2023-03-22T01:05:49.245Z,61.56
2023-03-22T01:08:16.566Z,61.38
2023-03-22T01:10:43.448Z,60.34
2023-03-22T01:13:11.204Z,60.35
2023-03-22T01:15:37.678Z,60.52
2023-03-22T01:18:04.408Z,61.06
2023-03-22T01:20:31.930Z,61.52
2023-03-22T01:22:58.458Z,61.76
2023-03-22T01:25:25.114Z,61.50
2023-03-22T01:27:51.451Z,61.26
2023-03-22T01:30:17.914Z,60.51
2023-03-22T01:32:44.281Z,62.08
2023-03-22T01:35:10.733Z,62.66
2023-03-22T01:37:37.101Z,62.20
2023-03-22T01:40:04.569Z,61.94
2023-03-22T01:42:31.065Z,61.99
2023-03-22T01:45:16.651Z,61.84
2023-03-22T01:47:51.817Z,60.30
2023-03-22T01:50:19.454Z,60.54
2023-03-22T01:52:46.028Z,60.30
2023-03-22T01:55:12.965Z,59.20
2023-03-22T01:57:42.010Z,59.23
2023-03-22T02:00:13.804Z,58.78
2023-03-22T02:02:40.476Z,58.50
2023-03-22T02:05:07.053Z,58.72
2023-03-22T02:07:33.454Z,57.94
2023-03-22T02:09:59.798Z,57.86
2023-03-22T02:12:35.383Z,57.27
2023-03-22T02:15:19.060Z,56.75
2023-03-22T02:18:06.243Z,57.11
2023-03-22T02:21:06.683Z,57.15
2023-03-22T02:23:54.846Z,56.79
2023-03-22T02:26:27.311Z,56.94
2023-03-22T02:29:04.344Z,57.54
2023-03-22T02:31:56.091Z,57.82
2023-03-22T02:34:57.083Z,57.77
2023-03-22T02:37:50.699Z,57.23
2023-03-22T02:40:32.160Z,57.27
2023-03-22T02:43:23.377Z,57.50
2023-03-22T02:46:07.113Z,57.44
2023-03-22T02:48:52.914Z,57.33
2023-03-22T02:51:29.268Z,57.65
2023-03-22T02:54:20.996Z,57.81
2023-03-22T02:56:55.494Z,58.96
2023-03-22T02:59:24.466Z,59.49
2023-03-22T03:01:54.760Z,59.12
2023-03-22T03:04:27.453Z,59.46
2023-03-22T03:06:57.562Z,59.82
2023-03-22T03:09:24.946Z,60.23
2023-03-22T03:11:53.557Z,60.47
2023-03-22T03:14:22.595Z,61.26
2023-03-22T03:17:01.931Z,61.53
2023-03-22T03:19:37.407Z,61.59
2023-03-22T03:22:25.940Z,61.70
2023-03-22T03:25:08.014Z,62.16
2023-03-22T03:27:49.786Z,61.62
2023-03-22T03:30:32.406Z,61.25
2023-03-22T03:33:06.419Z,61.07
2023-03-22T03:35:38.289Z,61.80
2023-03-22T03:38:10.466Z,62.25
2023-03-22T03:40:41.795Z,63.08
2023-03-22T03:43:09.687Z,63.00
2023-03-22T03:45:37.261Z,62.78
2023-03-22T03:48:13.116Z,62.70
2023-03-22T03:50:39.862Z,62.05
2023-03-22T03:53:06.472Z,62.03
2023-03-22T03:55:33.436Z,62.61
2023-03-22T03:57:59.766Z,62.93
2023-03-22T04:00:26.118Z,63.12
2023-03-22T04:02:52.538Z,63.65
2023-03-22T04:05:18.862Z,63.98
2023-03-22T04:07:45.404Z,65.18
2023-03-22T04:10:11.737Z,64.57
2023-03-22T04:12:38.428Z,64.40
2023-03-22T04:15:05.553Z,63.93
2023-03-22T04:17:31.993Z,64.75
2023-03-22T04:19:58.400Z,65.38
2023-03-22T04:22:25.490Z,64.24
2023-03-22T04:24:51.965Z,63.97
2023-03-22T04:27:20.510Z,64.29
2023-03-22T04:29:48.105Z,63.65
2023-03-22T04:32:22.790Z,63.36
2023-03-22T04:34:50.380Z,62.89
2023-03-22T04:37:17.580Z,62.89
2023-03-22T04:39:44.714Z,62.72
2023-03-22T04:42:11.738Z,63.39
2023-03-22T04:44:38.107Z,63.01
2023-03-22T04:47:04.497Z,62.73
2023-03-22T04:49:31.353Z,63.00
2023-03-22T04:51:57.790Z,62.56
2023-03-22T04:54:24.442Z,62.49
2023-03-22T04:56:50.787Z,62.36
2023-03-22T04:59:20.113Z,62.28
2023-03-22T05:01:47.487Z,62.31
2023-03-22T05:04:14.572Z,62.70
2023-03-22T05:06:40.955Z,62.57
2023-03-22T05:09:07.922Z,62.70
2023-03-22T05:11:34.522Z,62.90
2023-03-22T05:14:00.898Z,63.29
2023-03-22T05:16:27.302Z,62.88
2023-03-22T05:18:54.295Z,62.95
2023-03-22T05:21:28.262Z,63.01
2023-03-22T05:23:58.607Z,63.23
2023-03-22T05:26:26.192Z,62.72
2023-03-22T05:28:54.187Z,62.69
2023-03-22T05:31:21.869Z,62.60
2023-03-22T05:33:50.384Z,62.72
2023-03-22T05:36:18.976Z,63.20
2023-03-22T05:38:46.503Z,63.02
2023-03-22T05:41:13.766Z,64.08
2023-03-22T05:43:40.177Z,65.58
2023-03-22T05:46:08.694Z,66.23
2023-03-22T05:48:36.344Z,65.54
2023-03-22T05:51:06.584Z,67.44
2023-03-22T05:53:33.088Z,69.10
2023-03-22T05:56:03.303Z,69.46
2023-03-22T05:58:31.542Z,69.09
2023-03-22T06:01:01.199Z,69.55
2023-03-22T06:03:28.369Z,68.67
2023-03-22T06:05:54.900Z,68.20
2023-03-22T06:08:25.367Z,67.78
2023-03-22T06:10:54.163Z,67.16
2023-03-22T06:13:21.591Z,67.29
2023-03-22T06:15:47.992Z,66.81
2023-03-22T06:18:14.321Z,67.52
2023-03-22T06:20:41.177Z,67.70
2023-03-22T06:23:07.805Z,68.93
2023-03-22T06:25:34.190Z,69.81
2023-03-22T06:28:00.701Z,69.88
2023-03-22T06:30:27.666Z,69.97
2023-03-22T06:32:54.826Z,69.88
2023-03-22T06:35:21.210Z,69.95
2023-03-22T06:37:47.580Z,70.52
2023-03-22T06:40:14.156Z,71.12
2023-03-22T06:42:40.533Z,70.40
2023-03-22T06:45:07.948Z,69.54
2023-03-22T06:47:34.385Z,68.96
2023-03-22T06:50:00.720Z,68.00
2023-03-22T06:52:27.060Z,66.99
2023-03-22T06:54:53.410Z,67.07
2023-03-22T06:57:19.757Z,67.59
2023-03-22T06:59:46.092Z,67.31
2023-03-22T07:02:12.860Z,66.95
2023-03-22T07:04:39.261Z,67.89
2023-03-22T07:07:05.716Z,67.74
2023-03-22T07:09:32.052Z,67.40
2023-03-22T07:11:58.377Z,66.00
2023-03-22T07:14:24.735Z,65.48
2023-03-22T07:16:51.057Z,66.00
2023-03-22T07:19:18.349Z,65.88
2023-03-22T07:21:44.688Z,66.41
2023-03-22T07:24:11.956Z,65.74
2023-03-22T07:26:39.119Z,64.90
2023-03-22T07:29:05.493Z,64.60
2023-03-22T07:31:35.576Z,64.67
2023-03-22T07:34:05.984Z,64.64
2023-03-22T07:36:32.953Z,64.42
2023-03-22T07:38:59.317Z,63.66
2023-03-22T07:41:27.151Z,64.19
2023-03-22T07:44:00.221Z,64.10
2023-03-22T07:46:34.185Z,63.83
2023-03-22T07:49:00.759Z,63.21
2023-03-22T07:51:27.107Z,62.52
2023-03-22T07:53:53.434Z,62.33
2023-03-22T07:56:19.794Z,62.00
2023-03-22T07:58:46.179Z,61.79
2023-03-22T08:01:12.553Z,61.93
2023-03-22T08:03:39.536Z,61.80
2023-03-22T08:06:07.558Z,61.05
2023-03-22T08:08:35.402Z,60.90
2023-03-22T08:11:01.755Z,61.06
2023-03-22T08:13:28.090Z,60.68
2023-03-22T08:15:54.460Z,59.81
2023-03-22T08:18:20.995Z,60.17
2023-03-22T08:20:56.214Z,61.11
2023-03-22T08:23:38.545Z,60.90
2023-03-22T08:26:07.207Z,60.13
2023-03-22T08:28:33.572Z,60.22
2023-03-22T08:31:00.134Z,60.24
2023-03-22T08:33:26.607Z,60.13
2023-03-22T08:35:52.983Z,59.52
2023-03-22T08:38:19.571Z,59.85
2023-03-22T08:40:46.815Z,60.38
2023-03-22T08:43:13.198Z,61.01
2023-03-22T08:45:40.062Z,61.09
2023-03-22T08:48:06.797Z,61.03
2023-03-22T08:50:34.889Z,60.63
2023-03-22T08:53:01.288Z,60.95
2023-03-22T08:55:27.742Z,59.78
2023-03-22T08:57:58.028Z,59.08
2023-03-22T09:00:24.878Z,58.60
2023-03-22T09:02:51.317Z,58.52
2023-03-22T09:05:17.653Z,57.76
2023-03-22T09:07:44.207Z,57.42
2023-03-22T09:10:11.029Z,57.31
2023-03-22T09:12:38.426Z,57.11
2023-03-22T09:15:06.181Z,56.90
2023-03-22T09:17:32.895Z,56.00
2023-03-22T09:20:11.397Z,56.51
2023-03-22T09:22:38.733Z,54.66
2023-03-22T09:25:06.004Z,54.15
2023-03-22T09:27:32.398Z,54.32
2023-03-22T09:30:00.034Z,54.17
2023-03-22T09:32:26.723Z,53.50
2023-03-22T09:34:53.127Z,52.77
2023-03-22T09:37:19.966Z,51.64
2023-03-22T09:39:46.284Z,51.02
2023-03-22T09:42:27.936Z,51.03
2023-03-22T09:44:56.402Z,50.84
2023-03-22T09:47:43.896Z,50.69
2023-03-22T09:50:21.161Z,50.29
2023-03-22T09:52:48.219Z,50.64
2023-03-22T09:55:21.751Z,50.42
2023-03-22T09:57:58.604Z,49.81
2023-03-22T10:00:37.188Z,48.98
2023-03-22T10:03:24.466Z,48.80
2023-03-22T10:06:04.939Z,48.25
2023-03-22T10:09:00.847Z,49.06
2023-03-22T10:11:30.138Z,48.35
2023-03-22T10:14:13.149Z,47.94
2023-03-22T10:16:40.169Z,48.33
2023-03-22T10:19:24.090Z,48.77
2023-03-22T10:21:54.463Z,48.80
2023-03-22T10:24:31.330Z,47.23
2023-03-22T10:26:57.719Z,47.57
2023-03-22T10:29:40.778Z,47.08
2023-03-22T10:32:19.101Z,46.74
2023-03-22T10:34:46.579Z,46.44
2023-03-22T10:37:20.443Z,46.46
2023-03-22T10:39:51.006Z,45.59
2023-03-22T10:42:25.048Z,45.19
2023-03-22T10:45:00.247Z,45.85
2023-03-22T10:47:34.604Z,44.90
2023-03-22T10:50:07.121Z,44.35
2023-03-22T10:52:40.965Z,44.93
2023-03-22T10:55:13.494Z,44.80
2023-03-22T10:57:42.891Z,44.62
2023-03-22T11:00:12.474Z,44.52
2023-03-22T11:02:53.274Z,43.24
2023-03-22T11:05:30.084Z,42.88
2023-03-22T11:07:58.684Z,42.15
2023-03-22T11:10:28.628Z,42.21
2023-03-22T11:12:56.759Z,42.86
2023-03-22T11:15:30.284Z,42.83
2023-03-22T11:18:06.921Z,43.12
2023-03-22T11:20:39.996Z,41.98
2023-03-22T11:23:06.907Z,42.11
2023-03-22T11:25:36.267Z,41.26
2023-03-22T11:28:15.355Z,41.49
2023-03-22T11:30:58.567Z,41.65
2023-03-22T11:33:25.985Z,41.27
2023-03-22T11:35:58.033Z,41.54
2023-03-22T11:38:39.065Z,39.61
2023-03-22T11:41:10.433Z,39.74
2023-03-22T11:43:48.761Z,39.66
2023-03-22T11:46:19.267Z,39.45
2023-03-22T11:48:48.188Z,39.49
2023-03-22T11:51:36.290Z,39.86
2023-03-22T11:54:10.927Z,38.96
2023-03-22T11:56:42.336Z,38.81
2023-03-22T11:59:14.125Z,38.38
2023-03-22T12:01:45.572Z,38.81
2023-03-22T12:04:18.643Z,38.44
2023-03-22T12:06:45.239Z,39.27
2023-03-22T12:09:41.187Z,39.11
2023-03-22T12:12:22.936Z,38.36
2023-03-22T12:15:14.160Z,39.03
2023-03-22T12:17:59.279Z,37.27
2023-03-22T12:20:32.361Z,36.62
2023-03-22T12:22:59.486Z,36.29
2023-03-22T12:25:32.107Z,36.07
2023-03-22T12:28:07.206Z,36.13
2023-03-22T12:30:52.495Z,36.33
2023-03-22T12:33:26.931Z,36.40
2023-03-22T12:35:58.252Z,36.36
2023-03-22T12:38:31.109Z,35.04
2023-03-22T12:41:02.244Z,35.74
2023-03-22T12:43:44.364Z,35.98
2023-03-22T12:46:18.661Z,35.42
2023-03-22T12:49:09.141Z,34.85
2023-03-22T12:51:36.680Z,34.67
2023-03-22T12:54:03.573Z,34.03
2023-03-22T12:56:38.768Z,34.66
2023-03-22T12:59:08.130Z,34.77
2023-03-22T13:01:46.459Z,34.95
2023-03-22T13:04:31.690Z,34.39
2023-03-22T13:07:15.249Z,33.24
2023-03-22T13:09:47.599Z,32.81
2023-03-22T13:12:16.944Z,34.09
2023-03-22T13:14:52.609Z,32.96
2023-03-22T13:17:21.973Z,33.07
2023-03-22T13:20:11.408Z,32.83
2023-03-22T13:22:37.712Z,32.02
2023-03-22T13:25:10.222Z,31.73
2023-03-22T13:27:45.322Z,31.81
2023-03-22T13:30:35.208Z,31.63
2023-03-22T13:33:20.993Z,31.99
2023-03-22T13:35:50.963Z,32.21
2023-03-22T13:38:22.665Z,31.29
2023-03-22T13:41:01.121Z,31.31
2023-03-22T13:43:47.471Z,30.90
2023-03-22T13:46:29.853Z,31.45
2023-03-22T13:49:16.953Z,31.78
2023-03-22T13:51:44.521Z,30.17
2023-03-22T13:54:13.889Z,30.45
2023-03-22T13:57:01.253Z,30.67
2023-03-22T13:59:27.815Z,30.21
2023-03-22T14:02:00.167Z,30.07
2023-03-22T14:04:43.719Z,30.25
2023-03-22T14:07:25.635Z,29.80
2023-03-22T14:10:06.524Z,29.55
2023-03-22T14:12:49.571Z,29.51
2023-03-22T14:15:38.586Z,29.77
2023-03-22T14:18:12.494Z,29.70
2023-03-22T14:20:40.003Z,29.12
